Madera Canyon, Arizona
Current Conditions -  °F | °C
As of 12:53 AM on Thursday 27 Nov 2014 (Local Time) from KTUS Reporting Station
Clear Clear  
Wind Chill: 42°   Ceiling: Unl
Heat Index: 46°   Visibility: 10mi
Dew Point: 15°   Wind: 8mph
Humidity: 29%   Direction: 140°SE
Pressure: 30.26"   Gusts: NA
Location:  31.8307°N, 111.034°W
Report Text: KTUS 270753Z 14007KT 10SM CLR 08/M09 A3026 RMK AO2 SLP224 T00781094
Loading
Personal Weather Stations






























Interactive Weather Map New forecast layout! Learn more

10-Day Weather Forecast

Advertisements
Track Severe Weather on mobile